Time;durP1;ratioP1;P1;durP2;ratioP2;P2;SDS_P1;SDS_P2;PMS_P1;PMS_P2;Temp;Humidity;BMP_temperature;BMP_pressure;BME280_temperature;BME280_humidity;BME280_pressure;Samples;Min_cycle;Max_cycle;Signal;HPM_P1;HPM_P2
2022/12/22 03:27:04;;;;;;;;;121.00;97.67;;;;;1.29;100.00;99669.72;6273380;20;3696131;-59
2022/12/22 03:29:34;;;;;;;;;106.33;84.67;;;;;1.37;100.00;99669.53;6275709;20;3698158;-59
2022/12/22 03:32:04;;;;;;;;;120.00;95.67;;;;;1.31;100.00;99665.25;6276636;20;3689829;-59
2022/12/22 03:34:33;;;;;;;;;113.00;91.33;;;;;1.38;100.00;99672.16;6277938;20;3681494;-60
2022/12/22 03:37:03;;;;;;;;;110.00;91.33;;;;;1.16;100.00;99662.97;6273651;20;3693064;-59
2022/12/22 03:39:33;;;;;;;;;107.00;89.67;;;;;1.24;100.00;99666.34;6277881;20;3683702;-60
2022/12/22 03:47:38;;;;;;;;;110.67;94.33;;;;;1.31;100.00;99666.13;6279908;20;3685703;-59
2022/12/22 03:50:09;;;;;;;;;111.67;95.00;;;;;1.65;100.00;99669.72;6275207;20;3688963;-60
2022/12/22 03:52:38;;;;;;;;;107.67;98.67;;;;;1.64;100.00;99668.00;6279000;20;3662782;-59
2022/12/22 03:55:08;;;;;;;;;117.67;96.00;;;;;1.80;100.00;99664.03;6274214;20;3691037;-59
2022/12/22 03:57:39;;;;;;;;;114.50;94.00;;;;;1.63;100.00;99660.94;6277861;20;3695051;-59
2022/12/22 04:00:09;;;;;;;;;111.00;93.33;;;;;1.65;100.00;99667.06;6274281;20;3672188;-59
2022/12/22 04:02:39;;;;;;;;;113.67;99.67;;;;;1.56;100.00;99675.25;6276851;20;3698201;-60
2022/12/22 04:05:09;;;;;;;;;124.75;103.25;;;;;1.57;100.00;99671.69;6276002;20;4479573;-59
2022/12/22 04:07:39;;;;;;;;;119.67;96.33;;;;;1.69;100.00;99669.59;6277772;20;3697254;-59
2022/12/22 04:12:57;;;;;;;;;119.00;95.67;;;;;1.41;100.00;99666.78;6281014;20;3687895;-59
2022/12/22 04:15:31;;;;;;;;;117.33;95.00;;;;;1.36;100.00;99666.00;6285683;20;3703450;-59
2022/12/22 04:18:00;;;;;;;;;111.67;98.67;;;;;1.48;100.00;99665.72;6279299;20;3689967;-59
2022/12/22 04:20:31;;;;;;;;;118.25;102.25;;;;;1.50;100.00;99663.91;6283505;20;3711840;-59
2022/12/22 04:23:01;;;;;;;;;109.33;89.00;;;;;1.47;100.00;99671.03;6281290;20;3684776;-59
2022/12/22 04:25:30;;;;;;;;;116.00;100.67;;;;;1.47;100.00;99665.75;6280508;20;3681551;-60
2022/12/22 04:28:00;;;;;;;;;119.00;97.00;;;;;1.74;100.00;99661.56;6283379;20;3680634;-60
2022/12/22 04:30:30;;;;;;;;;115.33;99.33;;;;;1.48;100.00;99659.56;6284000;20;3692991;-59
2022/12/22 04:33:00;;;;;;;;;122.00;104.00;;;;;1.54;100.00;99660.28;6284847;20;3706065;-59
2022/12/22 04:35:30;;;;;;;;;118.67;98.00;;;;;1.69;100.00;99664.31;6282672;20;3701416;-59
2022/12/22 04:37:59;;;;;;;;;120.33;94.67;;;;;1.60;100.00;99674.25;6283342;20;3687885;-59
2022/12/22 04:40:29;;;;;;;;;124.67;104.67;;;;;1.47;100.00;99674.56;6282408;20;3717077;-59
2022/12/22 04:42:59;;;;;;;;;120.67;96.67;;;;;1.54;100.00;99668.22;6281564;20;3705531;-59
2022/12/22 04:45:28;;;;;;;;;113.33;91.67;;;;;1.85;100.00;99670.06;6279108;20;3680939;-60
2022/12/22 04:47:59;;;;;;;;;127.00;112.50;;;;;1.74;100.00;99666.84;6278162;20;3711207;-59
2022/12/22 04:50:29;;;;;;;;;124.25;105.25;;;;;1.51;100.00;99670.94;6275573;20;3723240;-59
2022/12/22 04:52:59;;;;;;;;;121.67;100.33;;;;;1.64;100.00;99668.00;6280311;20;3705506;-60
2022/12/22 04:55:29;;;;;;;;;105.33;91.67;;;;;1.52;100.00;99677.09;6285755;20;3683677;-59
2022/12/22 04:57:59;;;;;;;;;126.75;100.50;;;;;1.72;100.00;99679.25;6280217;20;3710759;-59
2022/12/22 05:00:30;;;;;;;;;122.50;101.00;;;;;1.59;100.00;99677.81;6307607;20;4464856;-59
2022/12/22 05:02:59;;;;;;;;;97.33;77.33;;;;;1.42;100.00;99675.56;6279753;20;3683794;-59
2022/12/22 05:05:29;;;;;;;;;103.67;79.00;;;;;1.40;100.00;99678.28;6286380;20;3683664;-59
2022/12/22 05:07:59;;;;;;;;;119.50;95.00;;;;;1.49;100.00;99678.03;6281878;20;3639869;-59
2022/12/22 05:10:30;;;;;;;;;107.00;96.00;;;;;1.43;100.00;99675.56;6314168;20;3675323;-58
2022/12/22 05:12:59;;;;;;;;;115.00;93.67;;;;;1.66;100.00;99674.09;6283824;20;3692070;-57
2022/12/22 05:15:33;;;;;;;;;116.33;95.00;;;;;1.81;100.00;99680.78;6281331;20;3679649;-56
2022/12/22 05:18:03;;;;;;;;;110.67;89.00;;;;;1.72;100.00;99671.31;6274187;20;3685761;-56
2022/12/22 05:20:35;;;;;;;;;104.00;92.33;;;;;1.53;100.00;99674.41;6280628;20;3681602;-55
2022/12/22 05:23:05;;;;;;;;;105.67;96.00;;;;;1.49;100.00;99671.88;6273420;20;3668999;-55
2022/12/22 05:25:34;;;;;;;;;107.33;87.33;;;;;1.56;100.00;99668.19;6280787;20;3702337;-56
2022/12/22 05:28:05;;;;;;;;;126.25;107.00;;;;;1.68;100.00;99672.28;6276302;20;3714979;-57
2022/12/22 05:30:35;;;;;;;;;131.75;106.00;;;;;1.63;100.00;99669.75;6273688;20;3710742;-55
2022/12/22 05:33:05;;;;;;;;;119.00;107.33;;;;;1.49;100.00;99675.38;6274807;20;3700237;-54
2022/12/22 05:35:35;;;;;;;;;114.33;94.67;;;;;1.77;100.00;99664.13;6279931;20;3692008;-53
2022/12/22 05:38:05;;;;;;;;;133.50;109.75;;;;;1.42;100.00;99675.56;6280148;20;3719222;-57
2022/12/22 05:40:36;;;;;;;;;128.25;108.00;;;;;1.42;100.00;99673.81;6274585;20;4473214;-54
2022/12/22 05:43:04;;;;;;;;;137.50;108.00;;;;;1.71;100.00;99673.09;6274408;20;1958712;-52
2022/12/22 05:45:34;;;;;;;;;116.33;99.00;;;;;1.73;100.00;99673.03;6276785;20;3686738;-55
2022/12/22 05:48:05;;;;;;;;;122.50;102.75;;;;;1.73;100.00;99676.53;6277025;20;3709702;-54
2022/12/22 05:50:34;;;;;;;;;136.33;105.33;;;;;1.30;100.00;99666.19;6305971;20;3713920;-54
2022/12/22 05:53:07;;;;;;;;;122.00;108.50;;;;;1.63;100.00;99680.31;6280537;20;3711727;-54
2022/12/22 05:55:37;;;;;;;;;121.50;99.50;;;;;1.50;100.00;99671.84;6305892;20;3702410;-49
2022/12/22 05:58:07;;;;;;;;;113.33;96.67;;;;;1.56;100.00;99668.19;6272467;20;3676405;-53
2022/12/22 06:00:37;;;;;;;;;119.67;99.00;;;;;1.51;100.00;99663.00;6274788;20;3712775;-56
2022/12/22 06:03:07;;;;;;;;;117.33;104.00;;;;;1.71;100.00;99674.84;6306175;20;3697340;-58
2022/12/22 06:05:38;;;;;;;;;124.00;103.75;;;;;1.85;100.00;99662.13;6281565;20;4489814;-57
2022/12/22 06:08:07;;;;;;;;;112.00;93.67;;;;;1.72;100.00;99669.53;6309828;20;3683615;-56
2022/12/22 06:10:37;;;;;;;;;113.67;96.33;;;;;1.49;100.00;99667.44;6278028;20;3686704;-57
2022/12/22 06:13:07;;;;;;;;;139.25;110.25;;;;;1.60;100.00;99667.19;6279725;20;3726429;-55
2022/12/22 06:15:37;;;;;;;;;121.33;103.33;;;;;1.54;100.00;99672.63;6278377;20;3702415;-56
2022/12/22 06:18:08;;;;;;;;;134.50;108.00;;;;;1.54;100.00;99675.28;6273594;20;3723294;-57
2022/12/22 06:20:39;;;;;;;;;126.50;99.50;;;;;1.27;100.00;99674.19;6272686;20;3715923;-55
2022/12/22 06:23:10;;;;;;;;;146.75;118.75;;;;;1.45;100.00;99681.69;6276181;20;4484024;-52
2022/12/22 06:25:40;;;;;;;;;120.50;101.50;;;;;1.59;100.00;99685.75;6311405;20;3707598;-57
2022/12/22 06:28:10;;;;;;;;;118.50;102.00;;;;;1.65;100.00;99696.19;6278645;20;3711896;-55
2022/12/22 06:30:40;;;;;;;;;125.00;99.00;;;;;1.29;100.00;99696.16;6310067;20;3694067;-56
2022/12/22 06:33:10;;;;;;;;;127.00;103.00;;;;;1.22;100.00;99702.53;6278606;20;3587808;-54
2022/12/22 06:35:40;;;;;;;;;119.67;96.67;;;;;1.37;100.00;99704.81;6308935;20;3704453;-56
2022/12/22 06:38:09;;;;;;;;;130.67;105.67;;;;;1.32;100.00;99704.03;6275711;20;3717998;-56
2022/12/22 06:40:40;;;;;;;;;126.75;101.50;;;;;1.25;100.00;99708.59;6280560;20;3713916;-56
2022/12/22 06:43:09;;;;;;;;;103.00;82.33;;;;;1.55;100.00;99711.41;6309348;20;3700289;-54
2022/12/22 06:45:42;;;;;;;;;111.67;89.33;;;;;1.62;100.00;99706.84;6279910;20;3674240;-50
2022/12/22 06:48:13;;;;;;;;;106.50;91.00;;;;;1.56;100.00;99707.00;6275562;20;3704590;-54
2022/12/22 06:50:43;;;;;;;;;116.00;95.00;;;;;1.44;100.00;99701.09;6313706;20;3696084;-55
2022/12/22 06:53:13;;;;;;;;;104.33;91.33;;;;;1.45;100.00;99699.31;6279719;20;3683591;-55
2022/12/22 06:55:42;;;;;;;;;116.67;96.00;;;;;1.51;100.00;99691.25;6266471;20;3677470;-53
2022/12/22 06:58:12;;;;;;;;;124.33;102.67;;;;;1.38;100.00;99690.66;6273921;20;3714934;-55
2022/12/22 07:00:47;;;;;;;;;141.75;115.00;;;;;1.41;100.00;99693.22;6280166;20;4491969;-55
2022/12/22 07:03:17;;;;;;;;;168.67;134.00;;;;;1.53;100.00;99705.31;6278985;20;3717976;-52
2022/12/22 07:05:48;;;;;;;;;123.50;100.25;;;;;1.91;100.00;99692.88;6280862;20;3710779;-56
2022/12/22 07:08:17;;;;;;;;;105.00;91.67;;;;;1.71;100.00;99694.25;6278427;20;3696240;-56
2022/12/22 07:10:59;;;;;;;;;113.33;98.67;;;;;1.73;100.00;99686.28;6277873;20;3694420;-55
2022/12/22 07:13:33;;;;;;;;;117.33;94.67;;;;;1.76;100.00;99683.53;6280646;20;3691997;-55
2022/12/22 07:16:07;;;;;;;;;132.50;109.00;;;;;1.66;100.00;99688.22;6280650;20;3722225;-54
2022/12/22 07:18:41;;;;;;;;;136.50;115.00;;;;;1.77;100.00;99676.50;6275100;20;3716360;-57
2022/12/22 07:21:13;;;;;;;;;102.00;86.67;;;;;1.97;100.00;99675.06;6276955;20;3677425;-58
2022/12/22 07:23:44;;;;;;;;;146.00;118.50;;;;;1.80;100.00;99671.97;6275430;20;4474208;-53
2022/12/22 07:26:15;;;;;;;;;147.50;128.00;;;;;2.03;100.00;99673.13;6276822;20;4482600;-57
2022/12/22 07:28:44;;;;;;;;;102.67;87.67;;;;;2.15;100.00;99670.16;6276890;20;3700238;-54
2022/12/22 07:31:17;;;;;;;;;124.67;100.67;;;;;1.98;100.00;99681.22;6275647;20;3706575;-56
2022/12/22 07:33:47;;;;;;;;;108.00;88.67;;;;;2.04;100.00;99677.53;6275925;20;3685222;-57
2022/12/22 07:36:20;;;;;;;;;117.67;98.00;;;;;2.29;100.00;99690.94;6274453;20;3687808;-57
2022/12/22 07:38:51;;;;;;;;;125.75;110.00;;;;;2.36;100.00;99688.09;6276924;20;4487717;-57
2022/12/22 07:44:07;;;;;;;;;132.00;100.00;;;;;2.67;100.00;99695.19;6310527;20;1956529;-56
2022/12/22 07:46:39;;;;;;;;;122.00;108.33;;;;;2.68;100.00;99704.84;6282951;20;3702354;-55
2022/12/22 07:51:59;;;;;;;;;141.75;113.25;;;;;2.83;100.00;99701.75;6281965;20;4485755;-57
2022/12/22 07:54:28;;;;;;;;;135.00;108.00;;;;;2.73;100.00;99696.78;6279765;20;1958621;-57
2022/12/22 07:56:58;;;;;;;;;121.25;107.50;;;;;2.62;100.00;99694.44;6281777;20;3706572;-57
2022/12/22 07:59:28;;;;;;;;;118.67;105.00;;;;;2.67;100.00;99695.19;6280129;20;3688811;-58
2022/12/22 08:01:59;;;;;;;;;130.50;111.50;;;;;2.47;100.00;99694.88;6284325;20;4494044;-57
2022/12/22 08:04:29;;;;;;;;;124.00;105.50;;;;;2.53;100.00;99689.41;6316381;20;3718111;-57
2022/12/22 08:06:59;;;;;;;;;108.33;92.33;;;;;2.69;100.00;99717.22;6316502;20;3687770;-58
2022/12/22 08:09:29;;;;;;;;;123.00;102.00;;;;;2.60;100.00;99714.81;6282525;20;3723159;-58
2022/12/22 08:11:59;;;;;;;;;103.33;79.33;;;;;2.74;100.00;99717.06;6283963;20;3682631;-56
2022/12/22 08:14:29;;;;;;;;;134.67;114.67;;;;;2.40;100.00;99724.19;6282603;20;3702346;-58
2022/12/22 08:16:59;;;;;;;;;120.67;98.00;;;;;2.90;100.00;99715.72;6281250;20;3708702;-58
2022/12/22 08:19:31;;;;;;;;;136.00;117.75;;;;;2.64;100.00;99721.78;6282419;20;4497069;-58
2022/12/22 08:22:03;;;;;;;;;142.50;119.75;;;;;2.73;100.00;99710.03;6282900;20;4494004;-58
2022/12/22 08:24:33;;;;;;;;;140.50;115.25;;;;;2.57;100.00;99718.41;6315766;20;3708615;-58
2022/12/22 08:27:13;;;;;;;;;140.00;124.00;;;;;2.99;100.00;99720.72;6308373;20;1950374;-58
2022/12/22 08:29:55;;;;;;;;;121.00;103.00;;;;;2.79;100.00;99724.00;6278437;20;3699616;-58
2022/12/22 08:32:26;;;;;;;;;127.75;106.25;;;;;2.51;100.00;99718.59;6281065;20;4478419;-59
2022/12/22 08:34:54;;;;;;;;;124.00;100.00;;;;;2.82;100.00;99723.03;6280866;20;1960931;-58
2022/12/22 08:37:31;;;;;;;;;99.67;86.00;;;;;2.47;100.00;99726.66;6282495;20;3684659;-58
2022/12/22 08:40:13;;;;;;;;;123.75;101.25;;;;;2.50;100.00;99722.19;6283063;20;3721212;-58
2022/12/22 08:42:44;;;;;;;;;112.33;96.67;;;;;2.68;100.00;99709.28;6279881;20;3683630;-57
2022/12/22 08:45:14;;;;;;;;;112.00;94.33;;;;;2.81;100.00;99702.72;6279982;20;3683768;-58
2022/12/22 08:47:44;;;;;;;;;119.00;102.50;;;;;2.78;100.00;99700.16;6284184;20;3706633;-58
2022/12/22 08:50:15;;;;;;;;;121.00;102.75;;;;;2.85;100.00;99697.28;6281463;20;3716975;-58
2022/12/22 08:52:46;;;;;;;;;122.75;105.75;;;;;2.91;100.00;99700.66;6312538;20;4495610;-59
2022/12/22 08:55:16;;;;;;;;;118.00;102.50;;;;;2.86;100.00;99704.31;6278888;20;3706566;-58
2022/12/22 08:57:49;;;;;;;;;140.00;116.75;;;;;3.08;100.00;99708.97;6272229;20;4489004;-59
2022/12/22 09:00:24;;;;;;;;;130.00;109.50;;;;;3.32;100.00;99709.13;6307098;20;1957790;-58
2022/12/22 09:02:55;;;;;;;;;133.25;105.75;;;;;3.17;100.00;99708.69;6282601;20;4489844;-59
2022/12/22 09:05:25;;;;;;;;;116.67;95.33;;;;;3.04;100.00;99712.63;6310546;20;3689858;-59
2022/12/22 09:07:55;;;;;;;;;128.50;97.50;;;;;2.74;100.00;99703.81;6282476;20;3693124;-59
2022/12/22 09:10:25;;;;;;;;;109.67;87.67;;;;;2.92;100.00;99702.38;6275978;20;3685720;-59
2022/12/22 09:12:54;;;;;;;;;102.33;85.00;;;;;2.81;100.00;99700.94;6279422;20;3676342;-58
2022/12/22 09:15:24;;;;;;;;;108.00;89.67;;;;;3.01;100.00;99691.53;6282430;20;3675417;-58
2022/12/22 09:17:54;;;;;;;;;99.33;79.67;;;;;3.16;100.00;99701.66;6276646;20;3678847;-58
2022/12/22 09:20:24;;;;;;;;;109.33;91.67;;;;;3.28;100.00;99690.63;6278259;20;3674268;-59
2022/12/22 09:22:54;;;;;;;;;118.25;97.75;;;;;3.05;100.00;99677.22;6282270;20;3706668;-59
2022/12/22 09:25:24;;;;;;;;;111.67;95.67;;;;;2.83;100.00;99672.59;6277026;20;3678488;-58
2022/12/22 09:27:53;;;;;;;;;105.67;87.67;;;;;3.18;100.00;99683.03;6274031;20;3689893;-59
2022/12/22 09:30:23;;;;;;;;;104.33;86.67;;;;;3.09;100.00;99673.59;6276513;20;3677381;-58
2022/12/22 09:32:54;;;;;;;;;115.33;97.33;;;;;3.25;100.00;99671.31;6276071;20;3697340;-56
2022/12/22 09:35:24;;;;;;;;;105.00;91.00;;;;;3.46;100.00;99657.34;6278946;20;3686751;-58
2022/12/22 09:37:54;;;;;;;;;127.75;105.75;;;;;2.93;100.00;99649.31;6278138;20;3713948;-58
2022/12/22 09:40:26;;;;;;;;;112.00;88.33;;;;;3.20;100.00;99652.88;6308694;20;3677350;-58
2022/12/22 09:42:57;;;;;;;;;126.50;100.00;;;;;3.05;100.00;99651.59;6279968;20;4467964;-58
2022/12/22 09:45:28;;;;;;;;;113.67;94.33;;;;;2.91;100.00;99653.78;6280344;20;3681525;-58
2022/12/22 09:47:57;;;;;;;;;121.67;95.67;;;;;3.02;100.00;99643.72;6277574;20;3691889;-59
2022/12/22 09:50:27;;;;;;;;;121.67;97.67;;;;;3.21;100.00;99646.69;6275929;20;3705542;-58
2022/12/22 09:53:03;;;;;;;;;114.33;104.67;;;;;3.28;100.00;99640.22;6275619;20;3686105;-58
2022/12/22 09:55:41;;;;;;;;;115.67;97.67;;;;;3.26;100.00;99644.72;6277254;20;3684759;-58
2022/12/22 09:58:30;;;;;;;;;125.50;103.00;;;;;3.23;100.00;99652.78;6277720;20;3712819;-59
2022/12/22 10:01:32;;;;;;;;;135.00;110.75;;;;;3.32;100.00;99648.09;6275981;20;4482640;-59
2022/12/22 10:04:06;;;;;;;;;121.25;104.50;;;;;3.22;100.00;99643.09;6279648;20;4471097;-57
2022/12/22 10:07:07;;;;;;;;;125.75;108.25;;;;;3.30;100.00;99651.66;6276928;20;3711340;-59
2022/12/22 10:09:37;;;;;;;;;134.00;110.00;;;;;3.19;100.00;99643.19;6308492;20;4491912;-59
2022/12/22 10:12:24;;;;;;;;;128.00;108.75;;;;;3.09;100.00;99636.44;6281278;20;4487748;-59
2022/12/22 10:14:55;;;;;;;;;127.75;103.25;;;;;3.09;100.00;99633.78;6275056;20;4482551;-59
2022/12/22 10:17:34;;;;;;;;;136.00;112.50;;;;;2.81;100.00;99626.69;6282782;20;4487732;-58
2022/12/22 10:20:28;;;;;;;;;121.00;109.25;;;;;3.15;100.00;99640.69;6274229;20;3702465;-59
2022/12/22 10:23:13;;;;;;;;;138.50;116.50;;;;;3.26;100.00;99633.25;6273704;20;1949329;-59
2022/12/22 10:25:56;;;;;;;;;149.25;124.00;;;;;3.55;100.00;99636.72;6276022;20;4492973;-59
2022/12/22 10:29:09;;;;;;;;;125.83;105.17;;;;;3.47;100.00;99629.00;6284109;20;4472146;-58
2022/12/22 10:32:15;;;;;;;;;122.25;107.25;;;;;3.94;100.00;99623.84;6307540;20;4464939;-59
2022/12/22 10:35:02;;;;;;;;;127.25;105.00;;;;;3.69;99.24;99627.38;6307182;20;4474641;-59
2022/12/22 10:37:39;;;;;;;;;128.57;110.00;;;;;3.44;100.00;99637.06;6318888;20;2533602;-59
2022/12/22 10:40:21;;;;;;;;;123.50;108.00;;;;;3.81;100.00;99630.50;6296123;20;1946172;-59
2022/12/22 10:42:54;;;;;;;;;129.00;103.75;;;;;3.64;98.85;99621.34;6305148;20;3720255;-59
2022/12/22 10:45:27;;;;;;;;;125.75;104.50;;;;;3.28;99.68;99621.66;6301126;20;4475794;-59
2022/12/22 10:47:57;;;;;;;;;126.00;107.00;;;;;3.32;99.75;99617.13;6297536;20;1947484;-58
2022/12/22 10:50:25;;;;;;;;;158.50;119.50;;;;;3.68;100.00;99616.78;6296495;20;1954004;-58
2022/12/22 10:52:58;;;;;;;;;161.00;125.50;;;;;3.67;98.27;99607.09;6304160;20;4502403;-58
2022/12/22 10:55:29;;;;;;;;;136.00;116.75;;;;;3.64;99.05;99615.19;6303490;20;4475235;-60
2022/12/22 10:58:27;;;;;;;;;126.00;114.00;;;;;3.50;99.13;99615.63;6299024;20;1944211;-59
2022/12/22 11:01:04;;;;;;;;;161.00;131.00;;;;;3.54;98.34;99601.34;6302622;20;1958820;-59
2022/12/22 11:03:32;;;;;;;;;150.00;122.00;;;;;3.55;99.08;99608.38;6299938;20;1956659;-59
2022/12/22 11:06:12;;;;;;;;;135.75;112.25;;;;;3.22;99.25;99611.25;6304040;20;3712992;-59
2022/12/22 11:08:42;;;;;;;;;115.67;94.33;;;;;3.60;99.12;99603.78;6304403;20;3702327;-59
2022/12/22 11:11:42;;;;;;;;;136.25;112.75;;;;;4.06;97.76;99583.56;6308023;20;4485658;-59
2022/12/22 11:14:44;;;;;;;;;124.00;106.25;;;;;3.57;97.18;99579.13;6307001;20;3710764;-58
2022/12/22 11:18:01;;;;;;;;;133.25;115.00;;;;;3.80;97.53;99571.22;6304142;20;4474297;-59
2022/12/22 11:20:59;;;;;;;;;119.00;101.50;;;;;3.78;97.16;99561.59;6338013;20;3703484;-59
2022/12/22 11:23:40;;;;;;;;;132.75;110.25;;;;;3.78;97.27;99556.28;6339429;20;4483673;-59
2022/12/22 11:26:14;;;;;;;;;136.00;106.00;;;;;3.99;96.95;99552.84;6299194;20;1958707;-59
2022/12/22 11:29:14;;;;;;;;;128.75;110.25;;;;;4.14;96.98;99552.28;6301322;20;3715997;-59
2022/12/22 11:32:21;;;;;;;;;116.50;94.25;;;;;3.91;96.40;99546.94;6301533;20;3694127;-59
2022/12/22 11:35:02;;;;;;;;;116.75;99.50;;;;;4.05;96.73;99544.63;6304534;20;3721280;-59
2022/12/22 11:38:04;;;;;;;;;121.25;95.00;;;;;4.13;96.34;99558.53;6335891;20;4475238;-59
2022/12/22 11:41:12;;;;;;;;;121.00;103.00;;;;;3.93;96.14;99558.38;6278191;20;3712354;-59
2022/12/22 11:44:23;;;;;;;;;126.00;110.50;;;;;3.76;97.82;99579.34;6313264;20;4484734;-60
2022/12/22 11:47:01;;;;;;;;;120.67;101.67;;;;;3.84;97.35;99571.97;6286045;20;3695236;-59
2022/12/22 11:50:22;;;;;;;;;112.25;94.50;;;;;4.11;97.44;99578.09;6282836;20;3714909;-59
2022/12/22 11:53:32;;;;;;;;;118.00;102.75;;;;;4.28;95.22;99590.75;6281072;20;4471076;-59
2022/12/22 11:56:21;;;;;;;;;127.50;107.25;;;;;4.13;96.02;99590.41;6281956;20;4480429;-59
2022/12/22 11:59:01;;;;;;;;;125.25;107.75;;;;;4.28;96.68;99572.13;6280842;20;4484717;-58
2022/12/22 12:01:58;;;;;;;;;128.00;102.50;;;;;4.39;95.75;99576.09;6280824;20;1947372;-60
2022/12/22 12:05:06;;;;;;;;;121.75;103.50;;;;;5.04;93.31;99568.28;6283658;20;4470043;-59
2022/12/22 12:07:49;;;;;;;;;121.75;102.25;;;;;4.37;94.88;99569.13;6315653;20;4476380;-60
2022/12/22 12:10:52;;;;;;;;;120.25;98.50;;;;;4.61;95.75;99562.88;6277951;20;4469033;-60
2022/12/22 12:13:41;;;;;;;;;127.50;99.50;;;;;4.53;94.98;99558.75;6308403;20;1944086;-60
2022/12/22 12:16:55;;;;;;;;;116.00;98.33;;;;;4.54;95.29;99564.03;6283498;20;3699210;-59
2022/12/22 12:19:45;;;;;;;;;119.00;99.75;;;;;4.93;93.81;99576.69;6283457;20;4472203;-59
2022/12/22 12:23:00;;;;;;;;;134.50;107.00;;;;;4.92;93.17;99572.28;6309846;20;1950303;-59
2022/12/22 12:25:40;;;;;;;;;116.25;100.75;;;;;4.68;95.17;99566.16;6282330;20;3704558;-59
2022/12/22 12:28:50;;;;;;;;;114.33;94.33;;;;;4.58;95.38;99570.09;6274844;20;3700333;-59
2022/12/22 12:31:30;;;;;;;;;99.67;83.00;;;;;4.85;94.90;99562.81;6281179;20;3681681;-59
2022/12/22 12:34:00;;;;;;;;;116.50;101.00;;;;;4.59;95.00;99566.53;6276707;20;1945263;-59
2022/12/22 12:36:40;;;;;;;;;119.33;97.33;;;;;4.61;95.26;99575.31;6282178;20;3702345;-59
2022/12/22 12:39:45;;;;;;;;;116.00;94.00;;;;;4.84;95.05;99587.69;6275903;20;3680466;-58
2022/12/22 12:42:38;;;;;;;;;112.50;98.50;;;;;4.65;94.70;99582.22;6279294;20;4453368;-59
2022/12/22 12:45:41;;;;;;;;;114.25;97.25;;;;;4.56;95.43;99578.13;6311266;20;3695157;-59
2022/12/22 12:48:24;;;;;;;;;128.75;105.50;;;;;4.53;96.13;99567.63;6282719;20;4491969;-60
2022/12/22 12:50:57;;;;;;;;;118.00;94.33;;;;;4.27;96.98;99570.41;6280713;20;3683587;-59
2022/12/22 12:53:31;;;;;;;;;128.00;107.75;;;;;4.37;96.61;99577.09;6281985;20;4494027;-59
2022/12/22 12:56:05;;;;;;;;;137.50;114.00;;;;;4.46;95.81;99563.47;6309619;20;1976571;-59
2022/12/22 12:58:36;;;;;;;;;68.33;39.00;;;;;4.24;97.35;99565.19;6276645;20;3633603;-59
2022/12/22 13:01:38;;;;;;;;;108.33;90.00;;;;;3.96;96.79;99567.09;6283652;20;3688870;-59
2022/12/22 13:04:09;;;;;;;;;126.00;104.00;;;;;4.23;96.72;99574.97;6280644;20;4483595;-59
2022/12/22 13:06:54;;;;;;;;;109.67;90.33;;;;;4.02;96.37;99586.38;6282130;20;3683579;-59
2022/12/22 13:09:31;;;;;;;;;124.00;100.50;;;;;4.18;96.70;99599.03;6279038;20;3720249;-59
2022/12/22 13:12:52;;;;;;;;;116.25;95.75;;;;;4.22;96.84;99605.13;6282582;20;4453367;-58
2022/12/22 13:15:39;;;;;;;;;135.50;115.25;;;;;4.33;96.05;99610.91;6280083;20;4483556;-59
2022/12/22 13:18:33;;;;;;;;;116.50;99.50;;;;;4.55;95.71;99608.28;6312934;20;3702332;-59
2022/12/22 13:21:25;;;;;;;;;125.00;107.25;;;;;4.40;95.08;99606.25;6282484;20;4477738;-59
2022/12/22 13:24:29;;;;;;;;;123.43;108.57;;;;;4.36;96.73;99602.81;6291580;20;2533620;-59
2022/12/22 13:27:08;;;;;;;;;132.75;113.00;;;;;4.46;96.97;99602.47;6278783;20;4480485;-59
2022/12/22 13:29:46;;;;;;;;;121.50;103.00;;;;;4.33;95.84;99605.59;6273963;20;3700494;-59
2022/12/22 13:32:33;;;;;;;;;128.25;106.75;;;;;4.36;96.48;99601.94;6279193;20;4515874;-59
2022/12/22 13:35:20;;;;;;;;;127.50;99.50;;;;;4.32;97.24;99597.69;6278429;20;3707527;-59
2022/12/22 13:38:30;;;;;;;;;120.00;105.00;;;;;4.36;96.94;99578.03;6273552;20;1950449;-59
2022/12/22 13:41:20;;;;;;;;;128.25;105.75;;;;;4.22;97.59;99580.34;6277926;20;3719078;-59
2022/12/22 13:44:06;;;;;;;;;119.00;102.50;;;;;4.16;97.03;99579.66;6307830;20;1947237;-60
2022/12/22 13:46:36;;;;;;;;;128.00;105.75;;;;;4.34;96.20;99585.19;6281920;20;4480470;-59
2022/12/22 13:49:14;;;;;;;;;139.50;114.25;;;;;4.48;95.88;99580.22;6280154;20;4487767;-59
2022/12/22 13:52:02;;;;;;;;;143.00;120.50;;;;;4.56;95.22;99561.31;6275338;20;1949378;-59
2022/12/22 13:54:39;;;;;;;;;135.50;111.50;;;;;4.33;96.96;99564.88;6281015;20;3706723;-59
2022/12/22 13:57:20;;;;;;;;;139.75;117.50;;;;;4.32;97.86;99547.19;6278683;20;4476309;-60
2022/12/22 13:59:53;;;;;;;;;141.75;119.25;;;;;4.09;98.43;99540.94;6276910;20;4473196;-59
2022/12/22 14:02:23;;;;;;;;;148.67;118.67;;;;;4.27;99.50;99535.88;6277555;20;3731532;-59
2022/12/22 14:05:12;;;;;;;;;129.00;105.25;;;;;4.00;100.00;99493.47;6278153;20;4490212;-58
2022/12/22 14:08:08;;;;;;;;;161.67;134.33;;;;;3.88;100.00;99478.00;6310891;20;3745037;-59
2022/12/22 14:10:42;;;;;;;;;160.50;124.00;;;;;3.82;100.00;99479.09;6269971;20;4496204;-59
2022/12/22 14:13:24;;;;;;;;;127.25;104.00;;;;;3.88;100.00;99484.19;6273987;20;4484086;-59
2022/12/22 14:16:04;;;;;;;;;133.50;106.75;;;;;3.81;100.00;99495.09;6276777;20;4487725;-60
2022/12/22 14:18:38;;;;;;;;;133.50;113.25;;;;;3.56;100.00;99509.25;6276938;20;3703484;-59
2022/12/22 14:21:07;;;;;;;;;133.50;115.50;;;;;3.84;100.00;99508.25;6305166;20;1959891;-59
2022/12/22 14:23:41;;;;;;;;;125.00;97.25;;;;;3.37;100.00;99489.59;6276077;20;4469099;-60
2022/12/22 14:26:21;;;;;;;;;132.50;113.00;;;;;3.34;100.00;99490.56;6267765;20;1958803;-59
2022/12/22 14:28:55;;;;;;;;;125.00;105.33;;;;;3.33;100.00;99485.31;6275312;20;3710663;-59
2022/12/22 14:31:25;;;;;;;;;146.00;122.00;;;;;3.39;100.00;99485.09;6274103;20;4491882;-59
2022/12/22 14:34:04;;;;;;;;;149.50;122.75;;;;;3.33;100.00;99480.03;6278495;20;3699359;-59
2022/12/22 14:36:40;;;;;;;;;155.00;127.00;;;;;3.04;100.00;99479.25;6305029;20;1966677;-59
2022/12/22 14:39:24;;;;;;;;;129.75;106.00;;;;;2.97;100.00;99483.88;6275686;20;4474194;-59
2022/12/22 14:42:04;;;;;;;;;146.50;115.50;;;;;3.06;100.00;99469.47;6308925;20;4465896;-59
2022/12/22 14:44:46;;;;;;;;;156.50;121.00;;;;;3.17;100.00;99485.84;6270559;20;1954465;-59
2022/12/22 14:47:24;;;;;;;;;155.25;126.00;;;;;3.06;100.00;99488.03;6275505;20;3720139;-59
2022/12/22 14:49:59;;;;;;;;;150.00;122.00;;;;;3.09;100.00;99498.53;6265096;20;1957751;-59
2022/12/22 14:52:59;;;;;;;;;153.75;127.25;;;;;3.02;100.00;99486.38;6276443;20;4491965;-59
2022/12/22 14:55:39;;;;;;;;;163.75;131.75;;;;;3.16;100.00;99494.75;6275107;20;4529530;-59
2022/12/22 14:58:29;;;;;;;;;155.60;130.20;;;;;3.16;100.00;99505.34;6277005;20;4510845;-60
2022/12/22 15:01:26;;;;;;;;;144.00;124.25;;;;;3.08;100.00;99499.41;6305953;20;4496110;-60
2022/12/22 15:04:06;;;;;;;;;170.86;138.86;;;;;2.85;100.00;99495.78;6317603;20;2533630;-59
2022/12/22 15:06:43;;;;;;;;;138.50;110.75;;;;;3.00;100.00;99505.00;6310838;20;4475658;-59
2022/12/22 15:09:13;;;;;;;;;155.75;122.00;;;;;3.06;100.00;99519.84;6272218;20;4494038;-59
2022/12/22 15:11:56;;;;;;;;;139.00;107.50;;;;;3.38;100.00;99515.22;6278560;20;4479461;-59
2022/12/22 15:14:31;;;;;;;;;139.75;116.25;;;;;3.18;100.00;99511.44;6309048;20;4459608;-58
2022/12/22 15:17:26;;;;;;;;;118.33;104.33;;;;;2.98;100.00;99505.97;6281546;20;3705489;-60